createdAt,value
2023-05-25T00:00:03.968Z,51.61
2023-05-25T00:02:33.893Z,51.37
2023-05-25T00:05:05.084Z,50.80
2023-05-25T00:07:33.732Z,50.96
2023-05-25T00:10:02.110Z,51.13
2023-05-25T00:12:30.780Z,51.02
2023-05-25T00:14:59.198Z,51.00
2023-05-25T00:17:32.197Z,51.09
2023-05-25T00:20:08.203Z,51.13
2023-05-25T00:22:39.374Z,50.94
2023-05-25T00:25:08.701Z,51.27
2023-05-25T00:27:37.099Z,51.58
2023-05-25T00:30:07.833Z,51.85
2023-05-25T00:32:36.209Z,52.57
2023-05-25T00:35:04.826Z,53.11
2023-05-25T00:37:33.235Z,53.65
2023-05-25T00:40:03.170Z,53.74
2023-05-25T00:42:32.300Z,54.00
2023-05-25T00:45:00.721Z,53.91
2023-05-25T00:47:29.465Z,54.08
2023-05-25T00:49:59.162Z,54.44
2023-05-25T00:52:28.266Z,54.65
2023-05-25T00:54:59.572Z,54.95
2023-05-25T00:57:34.320Z,54.48
2023-05-25T01:00:09.152Z,54.62
2023-05-25T01:02:42.303Z,54.78
2023-05-25T01:05:13.456Z,55.40
2023-05-25T01:07:45.417Z,55.46
2023-05-25T01:10:17.055Z,55.29
2023-05-25T01:12:47.906Z,55.11
2023-05-25T01:15:16.454Z,55.18
2023-05-25T01:17:46.923Z,55.62
2023-05-25T01:20:15.885Z,55.11
2023-05-25T01:22:51.543Z,55.11
2023-05-25T01:25:25.403Z,55.84
2023-05-25T01:27:58.953Z,55.57
2023-05-25T01:30:28.394Z,55.30
2023-05-25T01:32:58.401Z,55.46
2023-05-25T01:35:28.439Z,55.68
2023-05-25T01:38:00.522Z,55.76
2023-05-25T01:40:29.272Z,56.05
2023-05-25T01:42:57.681Z,55.88
2023-05-25T01:45:28.172Z,55.85
2023-05-25T01:48:04.777Z,56.56
2023-05-25T01:50:40.740Z,56.29
2023-05-25T01:53:13.915Z,56.96
2023-05-25T01:55:49.251Z,57.60
2023-05-25T01:58:19.844Z,57.86
2023-05-25T02:00:51.055Z,57.86
2023-05-25T02:03:20.219Z,58.02
2023-05-25T02:05:49.814Z,58.34
2023-05-25T02:08:21.203Z,58.70
2023-05-25T02:10:49.678Z,58.56
2023-05-25T02:13:18.187Z,58.95
2023-05-25T02:15:46.843Z,58.81
2023-05-25T02:18:17.923Z,58.93
2023-05-25T02:20:47.764Z,58.90
2023-05-25T02:23:18.741Z,59.06
2023-05-25T02:25:51.812Z,59.13
2023-05-25T02:28:20.321Z,59.59
2023-05-25T02:30:48.930Z,59.62
2023-05-25T02:33:18.882Z,59.64
2023-05-25T02:35:47.435Z,59.12
2023-05-25T02:38:15.853Z,58.63
2023-05-25T02:40:44.238Z,57.88
2023-05-25T02:43:14.096Z,57.73
2023-05-25T02:45:43.107Z,57.84
2023-05-25T02:48:11.783Z,57.02
2023-05-25T02:50:40.158Z,55.95
2023-05-25T02:53:11.963Z,56.63
2023-05-25T02:55:40.708Z,56.44
2023-05-25T02:58:13.430Z,56.52
2023-05-25T03:01:01.408Z,56.75
2023-05-25T03:03:30.496Z,56.80
2023-05-25T03:05:59.030Z,56.79
2023-05-25T03:08:27.614Z,57.08
2023-05-25T03:10:56.228Z,57.63
2023-05-25T03:13:26.272Z,58.25
2023-05-25T03:15:54.675Z,58.30
2023-05-25T03:18:24.736Z,58.61
2023-05-25T03:20:53.263Z,57.93
2023-05-25T03:23:21.718Z,57.89
2023-05-25T03:25:52.592Z,57.90
2023-05-25T03:28:23.040Z,57.84
2023-05-25T03:30:53.023Z,58.42
2023-05-25T03:33:21.444Z,58.93
2023-05-25T03:35:51.243Z,59.03
2023-05-25T03:38:19.662Z,59.28
2023-05-25T03:40:48.712Z,59.46
2023-05-25T03:43:17.116Z,59.95
2023-05-25T03:45:48.423Z,60.06
2023-05-25T03:48:19.056Z,60.37
2023-05-25T03:50:48.420Z,60.37
2023-05-25T03:53:17.703Z,60.84
2023-05-25T03:55:46.843Z,60.99
2023-05-25T03:58:16.254Z,61.01
2023-05-25T04:00:44.840Z,60.64
2023-05-25T04:03:13.271Z,60.61
2023-05-25T04:05:43.613Z,61.02
2023-05-25T04:08:12.187Z,61.02
2023-05-25T04:10:42.806Z,61.15
2023-05-25T04:13:11.222Z,61.62
2023-05-25T04:15:39.711Z,61.66
2023-05-25T04:18:12.075Z,61.73
2023-05-25T04:20:40.794Z,61.66
2023-05-25T04:23:13.291Z,61.86
2023-05-25T04:25:45.765Z,61.98
2023-05-25T04:28:16.010Z,61.84
2023-05-25T04:31:02.423Z,61.72
2023-05-25T04:33:45.587Z,61.66
2023-05-25T04:36:35.525Z,61.55
2023-05-25T04:39:08.102Z,61.65
2023-05-25T04:41:41.198Z,61.52
2023-05-25T04:44:11.807Z,61.39
2023-05-25T04:46:44.764Z,61.26
2023-05-25T04:49:19.905Z,61.13
2023-05-25T04:51:48.462Z,61.17
2023-05-25T04:54:18.479Z,61.45
2023-05-25T04:56:47.113Z,61.39
2023-05-25T04:59:16.431Z,61.38
2023-05-25T05:01:46.015Z,61.37
2023-05-25T05:04:18.087Z,61.12
2023-05-25T05:06:47.473Z,61.08
2023-05-25T05:09:21.689Z,60.97
2023-05-25T05:11:50.562Z,61.55
2023-05-25T05:14:20.442Z,62.28
2023-05-25T05:16:50.436Z,62.18
2023-05-25T05:19:18.886Z,62.24
2023-05-25T05:21:47.790Z,61.64
2023-05-25T05:24:18.360Z,61.85
2023-05-25T05:26:58.112Z,61.27
2023-05-25T05:29:31.483Z,60.80
2023-05-25T05:31:59.984Z,60.14
2023-05-25T05:34:28.394Z,59.80
2023-05-25T05:36:58.794Z,59.56
2023-05-25T05:39:29.241Z,59.43
2023-05-25T05:41:59.661Z,59.65
2023-05-25T05:44:29.477Z,59.07
2023-05-25T05:47:01.830Z,59.13
2023-05-25T05:49:32.141Z,59.32
2023-05-25T05:52:02.391Z,59.39
2023-05-25T05:54:32.237Z,59.26
2023-05-25T05:57:07.867Z,59.55
2023-05-25T05:59:36.260Z,59.48
2023-05-25T06:02:04.850Z,59.95
2023-05-25T06:04:33.762Z,60.18
2023-05-25T06:07:02.211Z,60.09
2023-05-25T06:09:30.796Z,60.00
2023-05-25T06:12:01.875Z,60.40
2023-05-25T06:14:32.054Z,60.40
2023-05-25T06:17:03.620Z,60.40
2023-05-25T06:19:32.177Z,60.22
2023-05-25T06:22:00.725Z,60.18
2023-05-25T06:24:29.182Z,60.05
2023-05-25T06:26:57.620Z,60.05
2023-05-25T06:29:27.065Z,60.05
2023-05-25T06:31:57.247Z,59.85
2023-05-25T06:34:26.143Z,60.09
2023-05-25T06:36:54.578Z,59.54
2023-05-25T06:39:22.981Z,59.31
2023-05-25T06:41:52.331Z,58.43
2023-05-25T06:44:30.839Z,57.38
2023-05-25T06:47:04.424Z,57.13
2023-05-25T06:49:33.056Z,57.61
2023-05-25T06:52:01.774Z,56.86
2023-05-25T06:54:31.312Z,57.07
2023-05-25T06:56:59.739Z,56.57
2023-05-25T06:59:28.219Z,56.08
2023-05-25T07:01:59.178Z,55.42
2023-05-25T07:04:29.730Z,55.01
2023-05-25T07:06:58.167Z,55.04
2023-05-25T07:09:26.545Z,55.48
2023-05-25T07:11:55.112Z,55.30
2023-05-25T07:14:23.472Z,55.11
2023-05-25T07:16:51.960Z,55.24
2023-05-25T07:19:20.347Z,56.07
2023-05-25T07:21:50.164Z,55.45
2023-05-25T07:24:19.183Z,55.09
2023-05-25T07:26:48.437Z,55.13
2023-05-25T07:29:17.074Z,55.33
2023-05-25T07:31:47.281Z,54.80
2023-05-25T07:34:16.417Z,54.18
2023-05-25T07:36:44.885Z,53.58
2023-05-25T07:39:14.754Z,53.46
2023-05-25T07:41:43.242Z,53.36
2023-05-25T07:44:14.073Z,52.99
2023-05-25T07:46:42.542Z,52.19
2023-05-25T07:49:15.966Z,51.84
2023-05-25T07:51:44.909Z,50.72
2023-05-25T07:54:14.850Z,49.85
2023-05-25T07:56:43.333Z,50.14
2023-05-25T07:59:12.761Z,50.38
2023-05-25T08:01:41.401Z,49.06
2023-05-25T08:04:09.983Z,49.30
2023-05-25T08:06:38.707Z,50.28
2023-05-25T08:09:08.208Z,50.28
2023-05-25T08:11:38.117Z,48.13
2023-05-25T08:14:06.423Z,47.74
2023-05-25T08:16:34.905Z,47.32
2023-05-25T08:19:03.260Z,47.21
2023-05-25T08:21:35.071Z,47.22
2023-05-25T08:24:05.224Z,44.74
2023-05-25T08:26:52.903Z,44.36
2023-05-25T08:29:24.111Z,44.55
2023-05-25T08:31:52.475Z,43.45
2023-05-25T08:34:23.513Z,42.48
2023-05-25T08:36:51.920Z,42.23
2023-05-25T08:39:20.398Z,41.55
2023-05-25T08:41:51.187Z,41.50
2023-05-25T08:44:20.275Z,42.31
2023-05-25T08:46:50.599Z,41.67
2023-05-25T08:49:19.152Z,41.85
2023-05-25T08:51:51.011Z,42.03
2023-05-25T08:54:20.748Z,41.72
2023-05-25T08:56:52.302Z,41.91
2023-05-25T08:59:33.463Z,41.90
2023-05-25T09:02:23.807Z,42.56
2023-05-25T09:04:52.368Z,42.45
2023-05-25T09:07:21.383Z,42.65
2023-05-25T09:09:50.493Z,42.24
2023-05-25T09:12:19.950Z,43.45
2023-05-25T09:14:49.024Z,42.82
2023-05-25T09:17:20.124Z,42.41
2023-05-25T09:19:49.197Z,43.17
2023-05-25T09:22:17.837Z,42.62
2023-05-25T09:24:46.647Z,42.06
2023-05-25T09:27:19.168Z,42.56
2023-05-25T09:29:49.712Z,43.29
2023-05-25T09:32:20.313Z,43.47
2023-05-25T09:34:48.993Z,43.56
2023-05-25T09:37:19.407Z,44.17
2023-05-25T09:39:49.182Z,44.94
2023-05-25T09:42:18.714Z,43.85
2023-05-25T09:44:47.219Z,43.67
2023-05-25T09:47:17.123Z,44.05
2023-05-25T09:49:49.648Z,44.00
2023-05-25T09:52:18.223Z,44.32
2023-05-25T09:54:47.581Z,43.84
2023-05-25T09:57:17.023Z,43.22
2023-05-25T09:59:46.164Z,42.80
2023-05-25T10:02:15.286Z,43.10
2023-05-25T10:04:43.801Z,43.27
2023-05-25T10:07:16.280Z,43.97
2023-05-25T10:09:47.790Z,44.36
2023-05-25T10:12:20.272Z,44.28
2023-05-25T10:14:52.332Z,43.16
2023-05-25T10:17:25.605Z,45.04
2023-05-25T10:19:58.758Z,44.55
2023-05-25T10:22:33.895Z,44.18
2023-05-25T10:25:10.788Z,44.47
2023-05-25T10:27:42.610Z,43.75
2023-05-25T10:30:11.864Z,43.55
2023-05-25T10:32:41.795Z,44.78
2023-05-25T10:35:11.464Z,45.12
2023-05-25T10:37:41.718Z,44.81
2023-05-25T10:40:11.063Z,44.71
2023-05-25T10:42:40.259Z,44.81
2023-05-25T10:45:10.526Z,43.14
2023-05-25T10:47:42.957Z,43.46
2023-05-25T10:50:20.827Z,43.71
2023-05-25T10:53:00.131Z,43.15
2023-05-25T10:55:32.026Z,42.42
2023-05-25T10:58:10.684Z,43.02
2023-05-25T11:00:39.983Z,41.67
2023-05-25T11:03:08.891Z,42.54
2023-05-25T11:05:39.501Z,42.08
2023-05-25T11:08:12.404Z,43.24
2023-05-25T11:10:45.848Z,42.76
2023-05-25T11:13:25.546Z,42.26
2023-05-25T11:16:09.330Z,42.97
2023-05-25T11:18:43.831Z,41.89
2023-05-25T11:21:24.232Z,42.59
2023-05-25T11:23:58.749Z,43.59
2023-05-25T11:26:30.868Z,43.04
2023-05-25T11:29:00.283Z,43.14
2023-05-25T11:31:39.720Z,42.88
2023-05-25T11:34:12.059Z,43.46
2023-05-25T11:36:41.484Z,44.82
2023-05-25T11:39:20.908Z,43.92
2023-05-25T11:41:56.215Z,44.19
2023-05-25T11:44:29.741Z,43.79
2023-05-25T11:46:58.669Z,43.48
2023-05-25T11:49:27.088Z,43.63
2023-05-25T11:51:55.730Z,43.88
2023-05-25T11:54:27.256Z,42.48
2023-05-25T11:56:59.437Z,42.70
2023-05-25T11:59:30.566Z,43.53
2023-05-25T12:02:02.308Z,43.05
2023-05-25T12:04:33.122Z,42.58
2023-05-25T12:07:04.937Z,43.62
2023-05-25T12:09:35.268Z,43.60
2023-05-25T12:12:05.366Z,43.79
2023-05-25T12:14:37.438Z,44.27
2023-05-25T12:17:07.713Z,44.30
2023-05-25T12:19:36.585Z,43.60
2023-05-25T12:22:05.173Z,44.24
2023-05-25T12:24:35.094Z,44.36
2023-05-25T12:27:06.033Z,44.10
2023-05-25T12:29:34.440Z,44.49
2023-05-25T12:32:06.985Z,44.00
2023-05-25T12:34:35.869Z,45.23
2023-05-25T12:37:04.215Z,44.36
2023-05-25T12:39:39.527Z,44.66
2023-05-25T12:42:15.306Z,44.88
2023-05-25T12:44:44.581Z,44.35
2023-05-25T12:47:14.760Z,44.45
2023-05-25T12:49:45.271Z,45.20
2023-05-25T12:52:33.527Z,44.89
2023-05-25T12:55:20.535Z,45.63
2023-05-25T12:57:52.574Z,45.28
2023-05-25T13:00:23.745Z,44.38
2023-05-25T13:02:52.591Z,44.93
2023-05-25T13:05:25.170Z,45.71
2023-05-25T13:07:55.499Z,45.70
2023-05-25T13:10:26.275Z,45.98
2023-05-25T13:12:57.335Z,46.89
2023-05-25T13:15:27.064Z,48.17
2023-05-25T13:17:56.451Z,47.58
2023-05-25T13:20:26.544Z,47.89
2023-05-25T13:22:55.918Z,47.34
2023-05-25T13:25:27.804Z,47.84
2023-05-25T13:27:58.033Z,46.62
2023-05-25T13:30:27.965Z,46.94
2023-05-25T13:32:56.423Z,46.00
2023-05-25T13:35:37.921Z,46.97
2023-05-25T13:38:06.731Z,47.15
2023-05-25T13:40:36.606Z,46.61
2023-05-25T13:43:05.036Z,45.52
2023-05-25T13:45:33.632Z,46.09
2023-05-25T13:48:02.151Z,46.37
2023-05-25T13:50:30.708Z,46.70
2023-05-25T13:52:59.270Z,45.97
2023-05-25T13:55:27.728Z,46.30
2023-05-25T13:57:57.502Z,45.98
2023-05-25T14:00:25.953Z,46.35
2023-05-25T14:02:54.527Z,47.35
2023-05-25T14:05:24.172Z,47.57
2023-05-25T14:07:55.677Z,46.79
2023-05-25T14:10:24.745Z,46.75
2023-05-25T14:12:53.115Z,46.16
2023-05-25T14:15:22.965Z,47.06
2023-05-25T14:17:51.374Z,46.81
2023-05-25T14:20:25.865Z,46.86
2023-05-25T14:22:55.049Z,46.47
2023-05-25T14:25:23.360Z,47.15
2023-05-25T14:27:51.857Z,46.86
2023-05-25T14:30:20.307Z,47.05
2023-05-25T14:32:50.239Z,46.93
2023-05-25T14:35:18.701Z,47.89
2023-05-25T14:37:47.015Z,48.22
2023-05-25T14:40:15.442Z,48.85
2023-05-25T14:42:44.223Z,48.71
2023-05-25T14:45:15.255Z,48.16
2023-05-25T14:47:44.434Z,48.33
2023-05-25T14:50:14.349Z,48.28
2023-05-25T14:52:43.304Z,48.35
2023-05-25T14:55:12.039Z,48.65
2023-05-25T14:57:40.536Z,48.47
2023-05-25T15:00:10.170Z,49.05
2023-05-25T15:02:38.927Z,48.98
2023-05-25T15:05:08.701Z,48.52
2023-05-25T15:07:38.634Z,48.48
2023-05-25T15:10:08.012Z,48.41
2023-05-25T15:12:36.467Z,48.61
2023-05-25T15:15:05.228Z,48.46
2023-05-25T15:17:33.657Z,48.60
2023-05-25T15:20:02.363Z,48.41
2023-05-25T15:22:30.827Z,48.45
2023-05-25T15:25:02.549Z,49.12
2023-05-25T15:27:32.364Z,49.96
2023-05-25T15:30:00.736Z,50.09
2023-05-25T15:32:29.341Z,49.90
2023-05-25T15:34:57.753Z,49.78
2023-05-25T15:37:26.140Z,49.62
2023-05-25T15:39:54.514Z,49.91
2023-05-25T15:42:24.399Z,50.28
2023-05-25T15:44:52.869Z,49.44
2023-05-25T15:47:21.418Z,49.71
2023-05-25T15:49:49.823Z,49.35
2023-05-25T15:52:18.204Z,49.70
2023-05-25T15:54:47.591Z,50.39
2023-05-25T15:57:15.970Z,49.48
2023-05-25T15:59:45.822Z,49.43
2023-05-25T16:02:14.382Z,49.71
2023-05-25T16:04:42.916Z,49.96
2023-05-25T16:07:11.405Z,49.74
2023-05-25T16:09:39.809Z,49.72
2023-05-25T16:12:08.604Z,49.52
2023-05-25T16:14:37.045Z,49.93
2023-05-25T16:17:07.218Z,50.67
2023-05-25T16:19:35.641Z,50.39
2023-05-25T16:22:04.088Z,50.36
2023-05-25T16:24:32.532Z,50.90
2023-05-25T16:27:01.066Z,51.65
2023-05-25T16:29:29.599Z,51.51
2023-05-25T16:31:58.028Z,51.22
2023-05-25T16:34:27.877Z,51.07
2023-05-25T16:36:57.297Z,50.84
2023-05-25T16:39:25.643Z,50.99
2023-05-25T16:41:54.122Z,51.20
2023-05-25T16:44:22.459Z,51.45
2023-05-25T16:46:50.815Z,51.66
2023-05-25T16:49:19.298Z,51.59
2023-05-25T16:51:49.077Z,51.46
2023-05-25T16:54:17.608Z,51.32
2023-05-25T16:56:46.372Z,51.54
2023-05-25T16:59:14.714Z,51.40
2023-05-25T17:01:43.211Z,51.42
2023-05-25T17:04:11.795Z,51.98
2023-05-25T17:06:40.313Z,51.70
2023-05-25T17:09:11.926Z,51.56
2023-05-25T17:11:40.431Z,51.61
2023-05-25T17:14:08.993Z,51.76
2023-05-25T17:16:37.473Z,51.78
2023-05-25T17:19:05.869Z,51.45
2023-05-25T17:21:35.036Z,51.52
2023-05-25T17:24:03.642Z,51.90
2023-05-25T17:26:33.504Z,51.54
2023-05-25T17:29:01.947Z,51.41
2023-05-25T17:31:30.345Z,51.59
2023-05-25T17:33:58.830Z,51.73
2023-05-25T17:36:27.379Z,51.43
2023-05-25T17:38:55.835Z,51.56
2023-05-25T17:41:25.292Z,51.35
2023-05-25T17:43:55.008Z,51.32
2023-05-25T17:46:23.434Z,51.43
2023-05-25T17:48:51.957Z,51.54
2023-05-25T17:51:21.758Z,51.68
2023-05-25T17:53:50.363Z,52.09
2023-05-25T17:56:19.711Z,51.59
2023-05-25T17:58:48.370Z,51.80
2023-05-25T18:01:18.283Z,52.00
2023-05-25T18:03:50.773Z,51.97
2023-05-25T18:06:19.357Z,51.95
2023-05-25T18:08:47.757Z,52.29
2023-05-25T18:11:16.208Z,52.36
2023-05-25T18:13:44.657Z,52.77
2023-05-25T18:16:13.054Z,52.81
2023-05-25T18:18:42.836Z,52.67
2023-05-25T18:21:11.301Z,53.55
2023-05-25T18:23:39.615Z,53.97
2023-05-25T18:26:08.075Z,53.93
2023-05-25T18:28:36.351Z,54.46
2023-05-25T18:31:04.824Z,54.91
2023-05-25T18:33:33.201Z,54.93
2023-05-25T18:36:03.017Z,55.23
2023-05-25T18:38:31.418Z,55.74
2023-05-25T18:40:59.822Z,56.05
2023-05-25T18:43:28.236Z,55.93
2023-05-25T18:45:56.636Z,55.85
2023-05-25T18:48:25.980Z,55.96
2023-05-25T18:50:54.409Z,56.46
2023-05-25T18:53:24.277Z,56.40
2023-05-25T18:55:52.865Z,55.84
2023-05-25T18:58:22.207Z,55.99
2023-05-25T19:00:50.681Z,56.06
2023-05-25T19:03:19.301Z,56.13
2023-05-25T19:05:47.831Z,56.02
2023-05-25T19:08:16.246Z,56.17
2023-05-25T19:10:46.092Z,56.06
2023-05-25T19:13:14.552Z,55.99
2023-05-25T19:15:43.256Z,56.12
2023-05-25T19:18:11.811Z,56.11
2023-05-25T19:20:40.265Z,56.28
2023-05-25T19:23:08.740Z,56.15
2023-05-25T19:25:37.150Z,56.49
2023-05-25T19:28:06.939Z,56.79
2023-05-25T19:30:35.278Z,56.69
2023-05-25T19:33:04.079Z,56.73
2023-05-25T19:35:32.630Z,57.24
2023-05-25T19:38:02.094Z,57.21
2023-05-25T19:40:30.929Z,57.47
2023-05-25T19:42:59.622Z,57.68
2023-05-25T19:45:29.438Z,57.66
2023-05-25T19:47:58.062Z,57.65
2023-05-25T19:50:30.550Z,57.85
2023-05-25T19:52:59.639Z,58.04
2023-05-25T19:55:28.517Z,58.14
2023-05-25T19:57:57.023Z,57.77
2023-05-25T20:00:26.974Z,57.75
2023-05-25T20:02:57.359Z,58.05
2023-05-25T20:05:25.774Z,58.51
2023-05-25T20:07:56.032Z,58.31
2023-05-25T20:10:24.432Z,58.66
2023-05-25T20:12:52.859Z,58.49
2023-05-25T20:15:21.358Z,58.60
2023-05-25T20:17:49.789Z,58.61
2023-05-25T20:20:19.716Z,58.90
2023-05-25T20:22:48.197Z,58.84
2023-05-25T20:25:16.630Z,59.17
2023-05-25T20:27:45.047Z,59.26
2023-05-25T20:30:17.109Z,58.95
2023-05-25T20:32:45.898Z,59.26
2023-05-25T20:35:14.847Z,59.39
2023-05-25T20:37:44.760Z,59.53
2023-05-25T20:40:13.226Z,59.67
2023-05-25T20:42:41.786Z,60.00
2023-05-25T20:45:10.990Z,59.85
2023-05-25T20:47:41.844Z,59.76
2023-05-25T20:50:10.480Z,59.61
2023-05-25T20:52:39.007Z,59.73
2023-05-25T20:55:09.961Z,59.64
2023-05-25T20:57:38.343Z,59.87
2023-05-25T21:00:08.410Z,60.01
2023-05-25T21:02:36.923Z,60.33
2023-05-25T21:05:05.828Z,60.35
2023-05-25T21:07:34.244Z,60.49
2023-05-25T21:10:04.309Z,60.49
2023-05-25T21:12:34.223Z,60.80
2023-05-25T21:15:02.648Z,60.91
2023-05-25T21:17:31.398Z,61.07
2023-05-25T21:19:59.840Z,61.33
2023-05-25T21:22:28.268Z,61.40
2023-05-25T21:24:56.752Z,61.40
2023-05-25T21:27:25.125Z,61.54
2023-05-25T21:29:55.706Z,61.84
2023-05-25T21:32:24.205Z,62.07
2023-05-25T21:34:52.991Z,62.34
2023-05-25T21:37:21.951Z,62.37
2023-05-25T21:39:50.570Z,62.63
2023-05-25T21:42:18.983Z,62.65
2023-05-25T21:44:47.416Z,62.47
2023-05-25T21:47:17.389Z,62.46
2023-05-25T21:49:45.913Z,62.61
2023-05-25T21:52:20.302Z,62.58
2023-05-25T21:54:48.874Z,62.77
2023-05-25T21:57:17.337Z,62.64
2023-05-25T21:59:45.781Z,62.40
2023-05-25T22:02:14.218Z,62.31
2023-05-25T22:04:44.185Z,62.21
2023-05-25T22:07:12.700Z,62.31
2023-05-25T22:09:41.133Z,62.44
2023-05-25T22:12:12.157Z,62.79
2023-05-25T22:14:40.635Z,63.11
2023-05-25T22:17:10.130Z,63.47
2023-05-25T22:19:38.725Z,63.64
2023-05-25T22:22:08.519Z,63.86
2023-05-25T22:24:37.013Z,64.07
2023-05-25T22:27:06.150Z,64.13
2023-05-25T22:29:34.572Z,64.38
2023-05-25T22:32:03.012Z,64.34
2023-05-25T22:34:31.561Z,64.66
2023-05-25T22:36:59.977Z,64.86
2023-05-25T22:39:29.854Z,64.94
2023-05-25T22:41:58.298Z,65.31
2023-05-25T22:44:26.673Z,65.27
2023-05-25T22:46:55.206Z,65.38
2023-05-25T22:49:23.770Z,65.47
2023-05-25T22:51:52.136Z,65.60
2023-05-25T22:54:20.674Z,65.70
2023-05-25T22:56:51.307Z,65.67
2023-05-25T22:59:19.917Z,65.54
2023-05-25T23:01:48.426Z,65.65
2023-05-25T23:04:17.108Z,65.62
2023-05-25T23:06:45.661Z,65.44
2023-05-25T23:09:14.245Z,65.38
2023-05-25T23:11:42.578Z,65.53
2023-05-25T23:14:12.976Z,65.49
2023-05-25T23:16:41.778Z,65.41
2023-05-25T23:19:10.221Z,65.49
2023-05-25T23:21:38.695Z,65.49
2023-05-25T23:24:07.745Z,65.55
2023-05-25T23:26:36.200Z,65.82
2023-05-25T23:29:04.599Z,66.11
2023-05-25T23:31:34.800Z,66.19
2023-05-25T23:34:03.214Z,66.13
2023-05-25T23:36:31.669Z,65.99
2023-05-25T23:39:00.153Z,65.74
2023-05-25T23:41:28.745Z,65.61
2023-05-25T23:43:57.872Z,65.57
2023-05-25T23:46:27.863Z,65.70
2023-05-25T23:48:57.780Z,65.97
2023-05-25T23:51:26.309Z,66.09
2023-05-25T23:53:54.701Z,66.36
2023-05-25T23:56:23.210Z,66.39
2023-05-25T23:58:51.700Z,66.72
